createdAt,value
2024-01-15T00:02:18.763Z,63.63
2024-01-15T00:04:46.554Z,63.77
2024-01-15T00:07:14.458Z,64.10
2024-01-15T00:09:42.428Z,63.83
2024-01-15T00:12:10.398Z,64.25
2024-01-15T00:14:38.325Z,64.26
2024-01-15T00:17:07.571Z,64.21
2024-01-15T00:19:35.466Z,64.23
2024-01-15T00:22:03.269Z,63.88
2024-01-15T00:24:31.042Z,64.06
2024-01-15T00:26:58.868Z,64.12
2024-01-15T00:29:26.727Z,64.04
2024-01-15T00:31:54.508Z,64.01
2024-01-15T00:34:23.743Z,63.97
2024-01-15T00:36:51.717Z,64.44
2024-01-15T00:39:19.606Z,64.13
2024-01-15T00:41:47.378Z,64.37
2024-01-15T00:44:15.236Z,64.09
2024-01-15T00:46:46.838Z,64.38
2024-01-15T00:49:15.121Z,64.40
2024-01-15T00:51:44.875Z,64.30
2024-01-15T00:54:12.822Z,64.25
2024-01-15T00:56:40.631Z,64.08
2024-01-15T00:59:08.950Z,64.02
2024-01-15T01:01:36.730Z,64.22
2024-01-15T01:04:04.613Z,64.46
2024-01-15T01:06:34.335Z,64.08
2024-01-15T01:09:03.814Z,64.05
2024-01-15T01:11:31.806Z,64.28
2024-01-15T01:13:59.583Z,64.59
2024-01-15T01:16:27.355Z,64.74
2024-01-15T01:18:55.284Z,64.42
2024-01-15T01:21:23.307Z,64.65
2024-01-15T01:23:51.176Z,64.44
2024-01-15T01:26:20.315Z,64.24
2024-01-15T01:28:48.038Z,64.56
2024-01-15T01:31:17.788Z,64.70
2024-01-15T01:33:45.854Z,64.83
2024-01-15T01:36:13.707Z,64.84
2024-01-15T01:38:42.507Z,64.27
2024-01-15T01:41:10.400Z,64.61
2024-01-15T01:43:39.483Z,64.55
2024-01-15T01:46:08.523Z,65.17
2024-01-15T01:48:37.795Z,65.04
2024-01-15T01:51:06.713Z,64.96
2024-01-15T01:53:37.029Z,64.79
2024-01-15T01:56:05.758Z,64.79
2024-01-15T01:58:35.613Z,64.66
2024-01-15T02:01:05.065Z,65.22
2024-01-15T02:03:33.508Z,64.84
2024-01-15T02:06:02.204Z,65.01
2024-01-15T02:08:30.155Z,64.83
2024-01-15T02:10:57.876Z,64.61
2024-01-15T02:13:25.734Z,65.05
2024-01-15T02:15:53.559Z,65.16
2024-01-15T02:18:23.017Z,65.29
2024-01-15T02:20:50.883Z,65.01
2024-01-15T02:23:19.941Z,65.19
2024-01-15T02:25:49.183Z,65.22
2024-01-15T02:28:18.773Z,64.80
2024-01-15T02:30:47.192Z,64.66
2024-01-15T02:33:15.262Z,65.25
2024-01-15T02:35:43.423Z,64.96
2024-01-15T02:38:11.259Z,64.74
2024-01-15T02:40:40.929Z,64.97
2024-01-15T02:43:08.771Z,64.81
2024-01-15T02:45:36.618Z,65.09
2024-01-15T02:48:05.098Z,65.20
2024-01-15T02:50:32.988Z,65.03
2024-01-15T02:53:00.745Z,65.10
2024-01-15T02:55:30.482Z,65.15
2024-01-15T02:57:59.687Z,64.59
2024-01-15T03:00:27.566Z,64.75
2024-01-15T03:02:55.396Z,64.46
2024-01-15T03:05:23.405Z,65.01
2024-01-15T03:07:51.289Z,64.94
2024-01-15T03:10:19.110Z,64.90
2024-01-15T03:12:46.954Z,65.05
2024-01-15T03:15:16.159Z,64.78
2024-01-15T03:17:44.676Z,65.09
2024-01-15T03:20:13.619Z,64.57
2024-01-15T03:22:41.457Z,65.21
2024-01-15T03:25:09.705Z,65.03
2024-01-15T03:27:37.516Z,64.80
2024-01-15T03:30:05.971Z,65.10
2024-01-15T03:32:35.417Z,65.39
2024-01-15T03:35:03.448Z,64.77
2024-01-15T04:41:30.473Z,65.10
2024-01-15T04:43:58.263Z,65.46
2024-01-15T04:46:26.022Z,65.29
2024-01-15T04:48:53.829Z,65.39
2024-01-15T04:51:21.640Z,65.53
2024-01-15T04:53:49.465Z,65.56
2024-01-15T04:56:17.876Z,65.02
2024-01-15T04:58:47.680Z,65.39
2024-01-15T05:01:17.685Z,64.96
2024-01-15T05:03:45.660Z,65.32
2024-01-15T05:06:13.644Z,65.40
2024-01-15T05:08:41.459Z,65.48
2024-01-15T05:11:09.287Z,65.58
2024-01-15T05:13:37.122Z,65.56
2024-01-15T05:16:07.017Z,65.40
2024-01-15T05:18:35.034Z,65.34
2024-01-15T05:21:03.718Z,65.38
2024-01-15T05:23:32.949Z,65.45
2024-01-15T05:26:00.744Z,65.39
2024-01-15T05:28:28.521Z,65.43
2024-01-15T05:30:56.847Z,65.23
2024-01-15T05:33:26.324Z,65.63
2024-01-15T05:35:54.969Z,65.23
2024-01-15T05:38:22.801Z,65.20
2024-01-15T05:40:50.578Z,65.13
2024-01-15T05:43:18.392Z,65.30
2024-01-15T05:45:46.616Z,65.46
2024-01-15T05:48:14.768Z,65.62
2024-01-15T05:50:44.141Z,65.79
2024-01-15T05:53:11.985Z,65.46
2024-01-15T05:55:39.759Z,65.30
2024-01-15T05:58:07.580Z,65.30
2024-01-15T06:00:36.685Z,65.17
2024-01-15T06:03:04.825Z,65.46
2024-01-15T06:05:32.651Z,65.66
2024-01-15T06:08:01.842Z,65.94
2024-01-15T06:10:29.695Z,65.14
2024-01-15T06:12:57.502Z,65.73
2024-01-15T06:15:25.358Z,65.73
2024-01-15T06:17:53.365Z,65.37
2024-01-15T06:20:21.239Z,65.53
2024-01-15T06:22:49.005Z,65.61
2024-01-15T06:25:18.173Z,65.30
2024-01-15T06:27:46.009Z,64.81
2024-01-15T06:30:14.709Z,64.98
2024-01-15T06:32:42.628Z,63.80
2024-01-15T06:35:11.722Z,63.55
2024-01-15T06:37:39.643Z,62.81
2024-01-15T06:40:09.224Z,62.04
2024-01-15T06:42:38.489Z,62.00
2024-01-15T06:45:07.555Z,61.46
2024-01-15T06:47:35.370Z,61.09
2024-01-15T06:50:03.277Z,61.10
2024-01-15T06:52:31.150Z,60.94
2024-01-15T06:54:58.949Z,61.45
2024-01-15T06:57:26.819Z,61.79
2024-01-15T06:59:55.986Z,61.96
2024-01-15T07:02:23.758Z,62.85
2024-01-15T07:04:51.637Z,62.67
2024-01-15T07:07:20.417Z,63.17
2024-01-15T07:09:48.377Z,63.20
2024-01-15T07:12:17.610Z,63.36
2024-01-15T07:14:45.532Z,63.57
2024-01-15T07:17:14.768Z,63.75
2024-01-15T07:19:42.647Z,64.06
2024-01-15T07:22:11.263Z,64.17
2024-01-15T07:24:39.054Z,64.61
2024-01-15T07:27:07.086Z,64.63
2024-01-15T07:29:37.181Z,64.99
2024-01-15T07:32:05.884Z,64.60
2024-01-15T07:34:35.165Z,64.45
2024-01-15T07:37:03.362Z,65.05
2024-01-15T07:39:31.894Z,64.82
2024-01-15T07:41:59.861Z,64.82
2024-01-15T07:44:27.647Z,64.22
2024-01-15T07:46:55.455Z,63.71
2024-01-15T07:49:24.837Z,63.25
2024-01-15T07:51:54.301Z,63.18
2024-01-15T07:54:22.166Z,63.09
2024-01-15T07:56:57.061Z,63.68
2024-01-15T07:59:25.428Z,63.46
2024-01-15T08:01:54.153Z,63.94
2024-01-15T08:04:23.194Z,64.08
2024-01-15T08:06:51.233Z,64.63
2024-01-15T08:09:20.493Z,63.95
2024-01-15T08:11:48.434Z,64.44
2024-01-15T08:14:16.474Z,64.44
2024-01-15T08:16:44.967Z,64.69
2024-01-15T08:19:13.349Z,64.90
2024-01-15T08:21:41.456Z,65.15
2024-01-15T08:24:09.540Z,65.21
2024-01-15T08:26:38.774Z,65.09
2024-01-15T08:29:06.653Z,65.09
2024-01-15T08:31:34.778Z,64.90
2024-01-15T08:34:03.283Z,65.54
2024-01-15T08:36:32.113Z,65.40
2024-01-15T08:39:00.001Z,65.46
2024-01-15T08:41:27.829Z,65.34
2024-01-15T08:43:57.013Z,65.44
2024-01-15T08:46:25.477Z,65.07
2024-01-15T08:48:53.415Z,65.19
2024-01-15T08:51:21.297Z,64.96
2024-01-15T08:53:49.105Z,64.53
2024-01-15T08:56:16.885Z,65.14
2024-01-15T08:58:44.694Z,64.59
2024-01-15T09:01:14.059Z,63.59
2024-01-15T09:03:43.421Z,63.39
2024-01-15T09:06:11.814Z,62.98
2024-01-15T09:08:40.014Z,62.85
2024-01-15T09:11:07.841Z,62.34
2024-01-15T09:13:35.585Z,62.45
2024-01-15T09:16:03.623Z,62.40
2024-01-15T09:18:33.121Z,61.97
2024-01-15T09:21:01.519Z,62.09
2024-01-15T09:23:30.019Z,61.23
2024-01-15T09:25:58.076Z,61.07
2024-01-15T09:28:25.873Z,60.97
2024-01-15T09:30:52.874Z,60.80
2024-01-15T09:33:20.846Z,60.72
2024-01-15T09:35:50.139Z,60.53
2024-01-15T09:38:19.544Z,60.16
2024-01-15T09:40:48.663Z,60.58
2024-01-15T09:43:17.134Z,60.97
2024-01-15T09:45:46.314Z,61.72
2024-01-15T09:48:14.511Z,61.94
2024-01-15T09:50:42.407Z,61.74
2024-01-15T09:53:11.958Z,61.67
2024-01-15T09:55:39.922Z,60.64
2024-01-15T09:58:07.861Z,60.55
2024-01-15T10:00:38.197Z,59.80
2024-01-15T10:03:07.732Z,60.10
2024-01-15T10:05:35.579Z,59.46
2024-01-15T10:08:05.044Z,59.65
2024-01-15T10:10:34.226Z,59.58
2024-01-15T10:13:02.248Z,59.07
2024-01-15T10:15:30.359Z,58.75
2024-01-15T10:17:58.238Z,59.18
2024-01-15T10:20:26.030Z,58.97
2024-01-15T10:22:53.842Z,59.13
2024-01-15T10:25:25.818Z,59.72
2024-01-15T10:28:04.322Z,60.25
2024-01-15T10:30:32.724Z,60.71
2024-01-15T10:33:02.371Z,61.29
2024-01-15T10:35:32.212Z,61.70
2024-01-15T10:38:00.694Z,61.96
2024-01-15T10:40:28.992Z,62.22
2024-01-15T10:42:57.248Z,62.36
2024-01-15T10:45:27.146Z,62.99
2024-01-15T10:48:00.209Z,62.84
2024-01-15T10:50:28.561Z,63.36
2024-01-15T10:52:56.881Z,63.53
2024-01-15T10:55:26.316Z,63.85
2024-01-15T10:57:57.883Z,63.93
2024-01-15T11:00:27.514Z,64.06
2024-01-15T11:02:57.134Z,64.09
2024-01-15T11:05:25.318Z,63.93
2024-01-15T11:07:57.462Z,63.60
2024-01-15T11:10:41.359Z,63.07
2024-01-15T11:13:11.808Z,62.49
2024-01-15T11:16:01.050Z,61.64
2024-01-15T11:18:30.411Z,61.05
2024-01-15T11:21:24.505Z,60.80
2024-01-15T11:23:54.808Z,60.48
2024-01-15T11:26:33.093Z,60.44
2024-01-15T11:29:02.596Z,60.42
2024-01-15T11:31:32.618Z,61.49
2024-01-15T11:34:01.404Z,61.49
2024-01-15T11:37:03.540Z,62.34
2024-01-15T11:39:47.971Z,62.70
2024-01-15T11:42:17.080Z,63.00
2024-01-15T11:44:45.780Z,63.71
2024-01-15T11:47:16.654Z,63.35
2024-01-15T11:50:07.425Z,64.08
2024-01-15T11:52:37.827Z,63.62
2024-01-15T11:55:21.071Z,63.59
2024-01-15T11:57:52.723Z,63.34
2024-01-15T12:00:20.876Z,63.63
2024-01-15T12:02:52.006Z,63.07
2024-01-15T12:05:21.558Z,62.69
2024-01-15T12:07:51.002Z,62.42
2024-01-15T12:10:20.382Z,61.87
2024-01-15T12:13:00.275Z,61.45
2024-01-15T12:15:30.769Z,60.92
2024-01-15T12:18:01.807Z,60.77
2024-01-15T12:20:30.795Z,60.25
2024-01-15T12:23:02.389Z,60.30
2024-01-15T12:25:33.305Z,59.86
2024-01-15T12:28:02.522Z,59.94
2024-01-15T12:30:32.853Z,60.07
2024-01-15T12:33:05.066Z,61.09
2024-01-15T12:35:33.201Z,61.40
2024-01-15T12:38:03.500Z,61.99
2024-01-15T12:40:32.545Z,62.10
2024-01-15T12:43:00.510Z,62.64
2024-01-15T12:45:28.681Z,62.79
2024-01-15T12:47:56.926Z,63.00
2024-01-15T12:50:27.830Z,63.60
2024-01-15T12:52:55.720Z,63.29
2024-01-15T12:55:23.506Z,63.78
2024-01-15T12:57:53.848Z,63.38
2024-01-15T13:00:22.120Z,63.65
2024-01-15T13:02:50.917Z,63.54
2024-01-15T13:05:19.302Z,64.08
2024-01-15T13:07:48.739Z,64.21
2024-01-15T13:10:16.627Z,63.86
2024-01-15T13:12:44.690Z,63.08
2024-01-15T13:15:14.517Z,62.56
2024-01-15T13:17:44.006Z,62.81
2024-01-15T13:20:13.443Z,62.03
2024-01-15T13:22:45.027Z,62.23
2024-01-15T13:25:14.571Z,62.18
2024-01-15T13:27:43.131Z,61.45
2024-01-15T13:30:13.718Z,61.26
2024-01-15T13:32:41.972Z,60.23
2024-01-15T13:35:14.375Z,60.55
2024-01-15T13:37:43.565Z,60.30
2024-01-15T13:40:17.801Z,60.13
2024-01-15T13:42:48.538Z,59.97
2024-01-15T13:45:17.050Z,60.82
2024-01-15T13:47:45.717Z,61.35
2024-01-15T13:50:13.745Z,61.86
2024-01-15T13:52:41.719Z,62.15
2024-01-15T13:55:10.939Z,62.18
2024-01-15T13:57:39.023Z,62.75
2024-01-15T14:00:13.071Z,62.98
2024-01-15T14:02:41.398Z,62.85
2024-01-15T14:05:09.624Z,63.27
2024-01-15T14:07:37.478Z,63.32
2024-01-15T14:10:07.073Z,63.78
2024-01-15T14:12:35.639Z,63.58
2024-01-15T14:15:04.619Z,63.64
2024-01-15T14:17:33.962Z,63.60
2024-01-15T14:20:01.926Z,63.52
2024-01-15T14:22:29.775Z,64.02
2024-01-15T14:24:57.736Z,63.80
2024-01-15T14:27:26.546Z,64.32
2024-01-15T14:29:54.361Z,64.02
2024-01-15T14:32:22.507Z,64.25
2024-01-15T14:34:51.902Z,64.07
2024-01-15T14:37:19.776Z,64.11
2024-01-15T14:39:47.597Z,64.61
2024-01-15T14:42:15.391Z,64.53
2024-01-15T14:44:43.221Z,65.13
2024-01-15T14:47:11.047Z,64.65
2024-01-15T14:49:40.361Z,64.15
2024-01-15T14:52:09.676Z,64.01
2024-01-15T14:54:37.629Z,63.14
2024-01-15T14:57:09.261Z,63.12
2024-01-15T14:59:37.730Z,62.22
2024-01-15T15:02:05.672Z,61.81
2024-01-15T15:04:33.682Z,61.28
2024-01-15T15:07:01.667Z,60.64
2024-01-15T15:09:31.107Z,60.57
2024-01-15T15:11:58.934Z,60.86
2024-01-15T15:14:26.767Z,60.89
2024-01-15T15:16:54.625Z,61.69
2024-01-15T15:19:22.730Z,62.30
2024-01-15T15:21:50.721Z,62.53
2024-01-15T15:24:18.559Z,62.56
2024-01-15T15:26:47.808Z,62.78
2024-01-15T15:29:18.005Z,62.69
2024-01-15T15:31:46.476Z,63.18
2024-01-15T15:34:14.884Z,63.65
2024-01-15T15:36:42.761Z,63.71
2024-01-15T15:39:10.604Z,63.45
2024-01-15T15:41:39.096Z,63.57
2024-01-15T15:44:08.232Z,63.42
2024-01-15T15:46:35.972Z,63.59
2024-01-15T15:49:07.813Z,64.02
2024-01-15T15:51:36.807Z,63.68
2024-01-15T15:54:06.379Z,63.83
2024-01-15T15:56:36.661Z,64.39
2024-01-15T15:59:04.398Z,64.41
2024-01-15T16:01:33.841Z,64.80
2024-01-15T16:04:01.777Z,64.09
2024-01-15T16:06:29.756Z,64.04
2024-01-15T16:08:57.638Z,64.19
2024-01-15T16:11:25.579Z,64.20
2024-01-15T16:13:53.424Z,64.09
2024-01-15T16:23:10.711Z,64.12
2024-01-15T16:23:23.949Z,64.73
2024-01-15T16:23:39.259Z,64.49
2024-01-15T16:24:51.304Z,64.31
2024-01-15T16:27:21.436Z,64.20
2024-01-15T16:29:49.297Z,64.32
2024-01-15T16:32:17.172Z,63.97
2024-01-15T16:34:46.437Z,64.27
2024-01-15T16:37:14.317Z,64.02
2024-01-15T16:39:42.081Z,64.13
2024-01-15T16:42:10.597Z,64.22
2024-01-15T16:44:38.508Z,64.16
2024-01-15T16:47:08.205Z,64.24
2024-01-15T16:49:36.898Z,64.10
2024-01-15T16:52:08.165Z,64.68
2024-01-15T16:54:36.867Z,63.95
2024-01-15T16:57:05.035Z,63.60
2024-01-15T16:59:32.844Z,63.85
2024-01-15T17:02:00.700Z,64.35
2024-01-15T17:04:28.512Z,63.44
2024-01-15T17:06:56.356Z,63.68
2024-01-15T17:09:25.508Z,62.77
2024-01-15T17:11:53.268Z,62.47
2024-01-15T17:14:21.047Z,61.96
2024-01-15T17:16:49.181Z,61.32
2024-01-15T17:19:17.416Z,60.88
2024-01-15T17:21:45.218Z,60.46
2024-01-15T17:24:13.971Z,59.54
2024-01-15T17:26:43.180Z,59.48
2024-01-15T17:29:11.024Z,59.08
2024-01-15T17:31:38.906Z,58.62
2024-01-15T17:34:07.203Z,58.55
2024-01-15T17:36:35.097Z,58.62
2024-01-15T17:39:04.897Z,58.71
2024-01-15T17:41:34.096Z,58.85
2024-01-15T17:44:03.537Z,59.51
2024-01-15T17:46:31.350Z,59.64
2024-01-15T17:49:04.046Z,60.29
2024-01-15T17:51:33.148Z,60.82
2024-01-15T17:54:01.072Z,61.21
2024-01-15T17:56:30.484Z,61.33
2024-01-15T17:58:58.494Z,61.76
2024-01-15T18:01:28.553Z,61.72
2024-01-15T18:03:58.322Z,62.06
2024-01-15T18:06:26.580Z,61.46
2024-01-15T18:08:54.497Z,61.26
2024-01-15T18:11:22.572Z,60.65
2024-01-15T18:13:50.431Z,60.28
2024-01-15T18:16:23.435Z,59.93
2024-01-15T18:18:53.467Z,59.10
2024-01-15T18:21:21.371Z,58.79
2024-01-15T18:23:49.247Z,58.78
2024-01-15T18:26:17.788Z,58.40
2024-01-15T18:28:45.770Z,57.22
2024-01-15T18:31:13.969Z,57.56
2024-01-15T18:33:41.853Z,57.55
2024-01-15T18:36:12.207Z,58.07
2024-01-15T18:38:40.399Z,58.33
2024-01-15T18:41:08.262Z,58.89
2024-01-15T18:43:36.176Z,59.64
2024-01-15T18:46:07.872Z,60.21
2024-01-15T18:48:35.763Z,60.47
2024-01-15T18:51:03.743Z,60.63
2024-01-15T18:53:33.004Z,60.89
2024-01-15T18:56:00.823Z,60.82
2024-01-15T18:58:28.662Z,61.13
2024-01-15T19:00:56.547Z,61.04
2024-01-15T19:03:24.476Z,61.34
2024-01-15T19:05:52.278Z,60.93
2024-01-15T19:08:20.430Z,61.70
2024-01-15T19:10:49.745Z,61.51
2024-01-15T19:13:17.586Z,61.59
2024-01-15T19:15:45.442Z,61.66
2024-01-15T19:18:15.250Z,61.29
2024-01-15T19:20:43.429Z,60.32
2024-01-15T19:23:12.182Z,59.92
2024-01-15T19:25:40.220Z,59.56
2024-01-15T19:28:09.516Z,59.02
2024-01-15T19:30:37.344Z,58.99
2024-01-15T19:33:05.750Z,58.68
2024-01-15T19:35:34.073Z,58.32
2024-01-15T19:38:03.056Z,58.57
2024-01-15T19:40:31.448Z,59.30
2024-01-15T19:42:58.416Z,60.20
2024-01-15T19:45:27.605Z,60.46
2024-01-15T19:47:55.622Z,60.50
2024-01-15T19:50:23.820Z,61.13
2024-01-15T19:52:51.922Z,61.41
2024-01-15T19:55:19.771Z,61.52
2024-01-15T19:57:48.786Z,61.65
2024-01-15T20:00:17.045Z,61.73
2024-01-15T20:02:46.193Z,62.03
2024-01-15T20:05:14.988Z,61.96
2024-01-15T20:07:42.891Z,62.45
2024-01-15T20:10:11.992Z,62.43
2024-01-15T20:12:40.879Z,62.53
2024-01-15T20:15:09.348Z,62.76
2024-01-15T20:17:37.248Z,62.89
2024-01-15T20:20:11.708Z,62.75
2024-01-15T20:22:39.914Z,62.76
2024-01-15T20:25:09.134Z,63.17
2024-01-15T20:27:37.008Z,63.13
2024-01-15T20:30:07.694Z,62.71
2024-01-15T20:32:35.616Z,63.63
2024-01-15T20:35:04.611Z,63.20
2024-01-15T20:37:33.868Z,63.19
2024-01-15T20:40:01.859Z,63.50
2024-01-15T20:42:29.702Z,63.54
2024-01-15T20:44:57.511Z,63.07
2024-01-15T20:47:25.486Z,62.98
2024-01-15T20:49:53.405Z,63.05
2024-01-15T20:52:23.951Z,63.17
2024-01-15T20:54:54.590Z,63.25
2024-01-15T20:57:22.413Z,63.33
2024-01-15T20:59:51.871Z,63.02
2024-01-15T21:02:20.089Z,63.15
2024-01-15T21:04:48.083Z,62.84
2024-01-15T21:07:15.915Z,63.04
2024-01-15T21:09:43.736Z,63.46
2024-01-15T21:12:13.179Z,63.05
2024-01-15T21:14:41.167Z,63.06
2024-01-15T21:17:09.136Z,63.47
2024-01-15T21:19:36.963Z,63.47
2024-01-15T21:22:05.813Z,63.50
2024-01-15T21:24:33.869Z,63.42
2024-01-15T21:27:01.683Z,63.46
2024-01-15T21:29:30.946Z,63.61
2024-01-15T21:31:58.772Z,63.47
2024-01-15T21:34:26.756Z,63.05
2024-01-15T21:36:54.618Z,63.05
2024-01-15T21:39:22.585Z,63.51
2024-01-15T21:41:50.596Z,63.15
2024-01-15T21:44:18.529Z,63.52
2024-01-15T21:46:47.712Z,63.12
2024-01-15T21:49:15.740Z,63.35
2024-01-15T21:51:43.708Z,63.31
2024-01-15T21:54:11.499Z,63.57
2024-01-15T21:56:39.384Z,64.08
2024-01-15T21:59:07.308Z,63.48
2024-01-15T22:01:35.122Z,64.20
2024-01-15T22:04:04.374Z,64.05
2024-01-15T22:06:36.062Z,64.01
2024-01-15T22:09:04.141Z,63.63
2024-01-15T22:11:32.049Z,63.47
2024-01-15T22:13:59.984Z,64.00
2024-01-15T22:16:27.847Z,64.01
2024-01-15T22:18:58.672Z,63.86
2024-01-15T22:21:29.712Z,63.82
2024-01-15T22:23:57.584Z,64.04
2024-01-15T22:26:25.474Z,64.20
2024-01-15T22:28:53.343Z,63.71
2024-01-15T22:31:21.188Z,64.06
2024-01-15T22:33:49.132Z,63.82
2024-01-15T22:36:16.970Z,64.20
2024-01-15T22:38:46.188Z,64.23
2024-01-15T22:41:14.034Z,63.94
2024-01-15T22:43:41.899Z,63.93
2024-01-15T22:46:11.173Z,64.09
2024-01-15T22:48:39.238Z,63.86
2024-01-15T22:51:08.010Z,64.00
2024-01-15T22:53:35.905Z,63.86
2024-01-15T22:56:05.394Z,64.43
2024-01-15T22:58:33.230Z,63.83
2024-01-15T23:01:01.626Z,64.33
2024-01-15T23:03:29.503Z,63.86
2024-01-15T23:05:57.354Z,64.38
2024-01-15T23:08:25.197Z,64.35
2024-01-15T23:10:53.051Z,63.88
2024-01-15T23:13:22.254Z,64.36
2024-01-15T23:15:50.062Z,64.15
2024-01-15T23:18:18.056Z,63.74
2024-01-15T23:20:46.012Z,64.42
2024-01-15T23:23:14.006Z,63.89
2024-01-15T23:25:42.116Z,63.91
2024-01-15T23:28:10.033Z,64.70
2024-01-15T23:30:39.195Z,64.19
2024-01-15T23:33:07.360Z,64.14
2024-01-15T23:35:35.261Z,64.26
2024-01-15T23:38:03.078Z,64.07
2024-01-15T23:40:30.855Z,64.35
2024-01-15T23:42:58.677Z,64.70
2024-01-15T23:45:26.640Z,64.13
2024-01-15T23:47:55.859Z,64.54
2024-01-15T23:50:23.726Z,64.63
2024-01-15T23:52:51.543Z,64.11
2024-01-15T23:55:19.336Z,64.32
2024-01-15T23:57:47.089Z,64.62
